Time;durP1;ratioP1;P1;durP2;ratioP2;P2;SDS_P1;SDS_P2;PMS_P1;PMS_P2;Temp;Humidity;BMP_temperature;BMP_pressure;BME280_temperature;BME280_humidity;BME280_pressure;Samples;Min_cycle;Max_cycle;Signal;HPM_P1;HPM_P2
2021/11/06 00:03:14;;;;;;;28.42;17.65;;;;;;;5.99;96.42;101735.41;20823689;28;20050;-70
2021/11/06 00:13:17;;;;;;;29.45;16.92;;;;;;;6.05;96.72;101744.25;20824340;28;20054;-69
2021/11/06 00:23:19;;;;;;;25.23;15.43;;;;;;;6.07;97.10;101747.75;20823831;28;20065;-71
2021/11/06 00:33:20;;;;;;;26.45;17.02;;;;;;;6.12;96.95;101755.66;20821426;28;20061;-70
2021/11/06 00:43:22;;;;;;;27.17;16.98;;;;;;;6.07;97.04;101759.88;20821777;28;20520;-69
2021/11/06 00:53:23;;;;;;;26.67;16.83;;;;;;;6.06;96.82;101761.59;20820643;28;20103;-69
2021/11/06 01:03:28;;;;;;;28.77;17.20;;;;;;;6.11;97.08;101764.31;20818927;28;20482;-70
2021/11/06 01:13:30;;;;;;;29.35;17.50;;;;;;;6.13;97.35;101762.63;20819228;28;20391;-71
2021/11/06 01:23:32;;;;;;;23.80;14.90;;;;;;;6.15;97.28;101750.56;20819676;28;20049;-71
2021/11/06 01:33:33;;;;;;;28.45;16.98;;;;;;;6.07;97.29;101757.28;20817896;28;20053;-70
2021/11/06 01:43:36;;;;;;;24.75;14.85;;;;;;;6.07;97.80;101742.56;20800529;28;20053;-71
2021/11/06 01:53:38;;;;;;;22.83;14.30;;;;;;;6.08;97.60;101733.03;20817224;28;20103;-71
2021/11/06 02:03:40;;;;;;;23.90;15.57;;;;;;;6.01;97.37;101736.34;20829107;28;20056;-70
2021/11/06 02:13:41;;;;;;;23.77;14.73;;;;;;;5.99;97.60;101738.00;20832415;28;20049;-70
2021/11/06 02:23:47;;;;;;;24.38;13.93;;;;;;;5.98;97.11;101721.53;20832548;28;20045;-71
2021/11/06 02:33:50;;;;;;;22.33;14.30;;;;;;;5.80;97.68;101721.94;20832048;28;20485;-72
2021/11/06 02:43:52;;;;;;;22.65;13.65;;;;;;;5.56;97.57;101723.94;20831225;28;20037;-70
2021/11/06 02:53:53;;;;;;;24.88;14.25;;;;;;;5.35;98.12;101724.22;20812449;28;20057;-70
2021/11/06 03:03:54;;;;;;;32.58;18.23;;;;;;;5.36;97.54;101754.53;20828352;28;20103;-70
2021/11/06 03:13:57;;;;;;;27.88;17.45;;;;;;;5.21;97.86;101759.31;20828721;28;20076;-70
2021/11/06 03:23:59;;;;;;;29.15;16.30;;;;;;;5.17;97.81;101742.75;20828495;28;20050;-70
2021/11/06 03:34:00;;;;;;;25.25;14.82;;;;;;;5.01;97.96;101745.78;20826546;28;20061;-71
2021/11/06 03:44:03;;;;;;;26.98;15.65;;;;;;;5.00;97.98;101757.00;20825868;28;20418;-71
2021/11/06 03:54:05;;;;;;;25.10;14.50;;;;;;;5.05;97.86;101756.28;20825183;28;20049;-71
2021/11/06 04:04:08;;;;;;;28.95;16.50;;;;;;;5.18;97.94;101760.13;20824608;28;20351;-71
2021/11/06 04:14:10;;;;;;;31.23;18.88;;;;;;;5.12;97.06;101775.50;20824241;28;20414;-76
2021/11/06 04:24:11;;;;;;;30.13;16.65;;;;;;;5.07;97.59;101771.91;20822075;28;20465;-71
2021/11/06 04:34:12;;;;;;;28.92;15.98;;;;;;;4.76;97.29;101791.78;20821472;28;20084;-70
2021/11/06 04:44:14;;;;;;;24.17;14.57;;;;;;;4.49;97.40;101790.91;20822385;28;20076;-71
2021/11/06 04:54:16;;;;;;;30.60;17.05;;;;;;;4.36;98.23;101798.34;20821747;28;20487;-70
2021/11/06 05:04:17;;;;;;;34.05;16.85;;;;;;;4.28;98.18;101801.50;20818734;28;20050;-71
2021/11/06 05:14:19;;;;;;;40.97;19.70;;;;;;;4.14;98.41;101803.66;20817461;28;20049;-73
2021/11/06 05:24:20;;;;;;;37.38;19.55;;;;;;;3.99;97.98;101808.31;20819249;28;20053;-71
2021/11/06 05:34:41;;;;;;;32.72;17.30;;;;;;;4.19;98.57;101807.25;20815175;28;20045;-71
2021/11/06 05:44:43;;;;;;;45.17;16.77;;;;;;;4.35;98.32;101814.69;20816805;28;20050;-72
2021/11/06 05:54:44;;;;;;;48.28;16.02;;;;;;;4.32;99.05;101814.63;20817128;28;20465;-70
2021/11/06 06:04:46;;;;;;;54.58;16.55;;;;;;;4.28;99.51;101820.53;20816041;28;20046;-71
2021/11/06 06:14:51;;;;;;;83.68;16.05;;;;;;;4.29;99.58;101830.06;20815655;28;20574;-71
2021/11/06 06:24:53;;;;;;;33.92;14.77;;;;;;;4.37;99.76;101831.19;20815793;28;20042;-71
2021/11/06 06:34:55;;;;;;;37.30;15.88;;;;;;;4.46;99.45;101850.50;20814754;28;20080;-71
2021/11/06 06:44:57;;;;;;;49.08;16.45;;;;;;;4.55;99.40;101851.69;20819642;28;20425;-70
2021/11/06 06:54:58;;;;;;;47.90;17.88;;;;;;;4.80;99.51;101860.22;20828978;28;20508;-72
2021/11/06 07:05:00;;;;;;;36.17;16.33;;;;;;;4.70;99.58;101872.03;20828553;28;20052;-71
2021/11/06 07:15:02;;;;;;;41.42;18.70;;;;;;;4.94;99.19;101874.50;20827924;28;20071;-71
2021/11/06 07:25:09;;;;;;;39.15;17.33;;;;;;;5.14;98.96;101883.78;20828044;28;20491;-72
2021/11/06 07:35:11;;;;;;;39.92;18.15;;;;;;;5.24;98.36;101887.53;20825975;28;20099;-71
2021/11/06 07:45:14;;;;;;;39.88;18.90;;;;;;;5.33;98.24;101898.19;20827759;28;20105;-71
2021/11/06 07:55:16;;;;;;;50.50;17.08;;;;;;;5.47;96.68;101888.22;20823891;28;20049;-71
2021/11/06 08:05:18;;;;;;;31.48;15.23;;;;;;;5.43;96.32;101901.06;20835917;28;20179;-71
2021/11/06 08:15:20;;;;;;;33.47;16.05;;;;;;;5.43;96.21;101909.72;20778424;28;20535;-72
2021/11/06 08:25:23;;;;;;;25.55;13.20;;;;;;;5.46;96.23;101917.63;20771400;28;20041;-71
2021/11/06 08:35:27;;;;;;;26.35;13.60;;;;;;;5.42;95.90;101931.34;20767862;28;20466;-71
2021/11/06 08:45:29;;;;;;;32.37;14.80;;;;;;;5.64;94.60;101932.84;20772168;28;20068;-71
2021/11/06 08:55:30;;;;;;;40.92;20.60;;;;;;;5.77;95.80;101929.78;20771358;28;20110;-71
2021/11/06 09:05:33;;;;;;;41.03;17.67;;;;;;;5.96;93.93;101926.00;20787210;28;20099;-71
2021/11/06 09:15:53;;;;;;;43.50;19.65;;;;;;;5.98;94.64;101924.31;20772227;28;20483;-71
2021/11/06 09:25:54;;;;;;;34.17;17.80;;;;;;;5.88;95.24;101928.34;20802751;28;20080;-70
2021/11/06 09:35:56;;;;;;;46.50;21.42;;;;;;;6.01;94.07;101934.81;20756972;28;20144;-68
2021/11/06 09:45:59;;;;;;;41.75;20.67;;;;;;;6.13;93.57;101929.97;20728952;28;20100;-68
2021/11/06 09:56:01;;;;;;;39.13;18.70;;;;;;;6.32;93.58;101923.50;20726383;28;20046;-68
2021/11/06 10:06:07;;;;;;;37.45;18.83;;;;;;;6.54;94.24;101932.75;20728273;28;20521;-69
2021/11/06 10:16:08;;;;;;;37.65;18.52;;;;;;;6.79;93.02;101929.03;20779414;28;20061;-68
2021/11/06 10:26:13;;;;;;;35.67;17.17;;;;;;;6.59;92.54;101923.31;20822552;28;20057;-68
2021/11/06 10:36:23;;;;;;;35.65;16.33;;;;;;;6.37;93.40;101918.41;20823355;28;20049;-68
2021/11/06 10:46:29;;;;;;;34.88;16.77;;;;;;;6.97;93.29;101922.50;20823384;28;20556;-69
2021/11/06 10:56:34;;;;;;;;;;;;;;;7.27;91.72;101906.69;20804800;28;20049;-68
2021/11/06 11:06:41;;;;;;;;;;;;;;;7.36;90.63;101896.47;20822138;28;19980;-68
2021/11/06 11:16:50;;;;;;;31.40;16.52;;;;;;;7.65;90.72;101884.03;20768682;28;19937;-68
2021/11/06 11:26:54;;;;;;;32.47;16.92;;;;;;;7.48;89.65;101860.25;20814823;28;20095;-68
2021/11/06 11:36:56;;;;;;;31.95;17.27;;;;;;;7.84;90.25;101849.63;20819388;28;20479;-68
2021/11/06 11:47:40;;;;;;;36.88;19.83;;;;;;;8.03;87.87;101830.00;20819574;28;20545;-68
2021/11/06 11:57:49;;;;;;;36.50;19.65;;;;;;;7.91;88.73;101819.34;20809181;28;20052;-68
2021/11/06 12:08:30;;;;;;;35.92;20.10;;;;;;;7.72;87.40;101813.81;20817433;28;20053;-68
2021/11/06 12:18:32;;;;;;;35.53;19.85;;;;;;;7.72;88.11;101805.09;20707441;28;20049;-69
2021/11/06 12:28:33;;;;;;;29.63;17.30;;;;;;;7.52;88.55;101793.41;20735741;28;20058;-69
2021/11/06 12:38:35;;;;;;;33.95;19.15;;;;;;;7.58;90.06;101798.75;20733919;28;20046;-68
2021/11/06 12:48:45;;;;;;;34.03;19.83;;;;;;;7.94;88.59;101768.09;20732516;28;20100;-68
2021/11/06 12:59:03;;;;;;;27.65;16.98;;;;;;;8.15;87.52;101762.38;20732367;28;20123;-68
2021/11/06 13:09:10;;;;;;;25.85;16.30;;;;;;;8.14;88.08;101749.28;20729733;28;20057;-68
2021/11/06 13:19:11;;;;;;;26.60;16.90;;;;;;;7.66;89.60;101737.19;20807561;28;20498;-68
2021/11/06 13:29:21;;;;;;;32.40;18.50;;;;;;;8.13;87.22;101726.69;20812910;28;20108;-69
2021/11/06 13:39:24;;;;;;;30.13;18.88;;;;;;;7.80;89.64;101719.19;20810551;28;20166;-68
2021/11/06 13:49:34;;;;;;;29.85;17.25;;;;;;;7.25;92.11;101716.47;20782383;28;20145;-68
2021/11/06 13:59:51;;;;;;;29.77;16.73;;;;;;;7.25;91.95;101699.97;20728216;28;20053;-69
2021/11/06 14:10:00;;;;;;;32.10;18.95;;;;;;;7.28;92.28;101700.94;20728168;28;20166;-70
2021/11/06 14:20:02;;;;;;;34.60;19.45;;;;;;;7.14;93.02;101691.97;20809596;28;20056;-68
2021/11/06 14:30:07;;;;;;;35.97;20.33;;;;;;;7.32;93.68;101676.66;20771609;28;20049;-69
2021/11/06 14:40:11;;;;;;;;;;;;;;;7.38;92.19;101671.56;20727906;28;20046;-69
2021/11/06 14:50:18;;;;;;;39.22;20.00;;;;;;;7.25;92.56;101667.00;20727253;28;20393;-69
2021/11/06 15:00:38;;;;;;;42.17;22.40;;;;;;;7.30;93.27;101649.72;20726242;28;20084;-71
2021/11/06 15:10:42;;;;;;;43.58;23.08;;;;;;;7.50;92.43;101637.03;20743581;28;20056;-69
2021/11/06 15:20:44;;;;;;;35.47;19.43;;;;;;;7.29;92.08;101632.34;20821161;28;20091;-69
2021/11/06 15:30:48;;;;;;;40.45;20.00;;;;;;;6.88;94.19;101624.63;20820770;28;20050;-68
2021/11/06 15:40:49;;;;;;;42.38;20.98;;;;;;;7.01;94.55;101622.28;20819593;28;20049;-70
2021/11/06 15:50:52;;;;;;;44.63;23.48;;;;;;;7.03;94.33;101613.63;20783268;28;20045;-69
2021/11/06 16:00:54;;;;;;;43.88;21.58;;;;;;;6.90;93.81;101615.13;20767705;28;20046;-70
2021/11/06 16:11:15;;;;;;;44.72;20.50;;;;;;;6.58;94.68;101611.03;20792011;28;20042;-69
2021/11/06 16:21:20;;;;;;;53.08;23.77;;;;;;;6.67;95.58;101608.59;20734333;28;20057;-70
2021/11/06 16:31:23;;;;;;;56.80;26.10;;;;;;;6.67;94.91;101603.41;20734121;28;20545;-69
2021/11/06 16:41:24;;;;;;;48.58;23.80;;;;;;;6.42;94.95;101605.53;20733928;28;20483;-69
2021/11/06 16:51:28;;;;;;;44.80;22.38;;;;;;;6.28;95.77;101612.16;20734293;28;20502;-68
2021/11/06 17:01:31;;;;;;;46.22;23.17;;;;;;;6.39;95.66;101617.59;20732725;28;20434;-68
2021/11/06 17:11:32;;;;;;;48.97;22.33;;;;;;;6.35;95.72;101614.03;20749304;28;20391;-68
2021/11/06 17:21:34;;;;;;;45.28;21.92;;;;;;;6.27;96.60;101620.78;20769660;28;20061;-69
2021/11/06 17:31:36;;;;;;;49.00;20.52;;;;;;;5.99;97.11;101634.03;20775603;28;20061;-68
2021/11/06 17:41:37;;;;;;;51.60;20.25;;;;;;;5.96;97.34;101629.66;20801652;28;20045;-69
2021/11/06 17:51:42;;;;;;;50.38;21.08;;;;;;;5.93;98.12;101629.56;20741018;28;20049;-68
2021/11/06 18:01:45;;;;;;;42.67;19.80;;;;;;;6.08;97.67;101618.63;20809168;28;20108;-68
2021/11/06 18:11:46;;;;;;;40.58;18.17;;;;;;;6.09;97.55;101613.47;20772408;28;20289;-68
2021/11/06 18:21:48;;;;;;;37.72;17.65;;;;;;;6.07;97.48;101611.69;20728262;28;20058;-69
2021/11/06 18:31:50;;;;;;;59.80;26.05;;;;;;;6.09;97.64;101604.81;20725433;28;20054;-69
2021/11/06 18:41:52;;;;;;;58.70;24.42;;;;;;;6.01;96.98;101596.81;20735763;28;20111;-69
2021/11/06 18:51:53;;;;;;;43.25;17.08;;;;;;;5.94;96.89;101588.84;20824003;28;20107;-70
2021/11/06 19:01:55;;;;;;;40.08;18.50;;;;;;;5.89;97.38;101579.22;20822389;28;20092;-70
2021/11/06 19:11:57;;;;;;;40.88;17.75;;;;;;;6.02;97.54;101566.50;20821593;28;20061;-70
2021/11/06 19:21:59;;;;;;;41.72;17.33;;;;;;;5.97;97.45;101547.34;20820369;28;20045;-71
2021/11/06 19:32:00;;;;;;;30.63;14.50;;;;;;;5.85;96.77;101521.94;20818774;28;20061;-72
2021/11/06 19:42:03;;;;;;;40.15;14.02;;;;;;;5.73;96.64;101514.72;20813375;28;20046;-71
2021/11/06 19:52:05;;;;;;;43.08;17.88;;;;;;;5.57;97.92;101510.94;20736434;28;20049;-68
2021/11/06 20:02:07;;;;;;;32.05;16.02;;;;;;;5.74;97.55;101519.06;20736776;28;20049;-70
2021/11/06 20:12:09;;;;;;;36.35;15.95;;;;;;;5.73;97.65;101495.66;20735961;28;20104;-69
2021/11/06 20:22:10;;;;;;;35.55;15.30;;;;;;;5.70;97.49;101482.59;20733752;28;20061;-71
2021/11/06 20:32:13;;;;;;;40.05;14.30;;;;;;;5.56;96.71;101482.31;20797630;28;20057;-68
2021/11/06 20:42:14;;;;;;;41.85;14.55;;;;;;;5.24;97.70;101495.44;20807932;28;20054;-69
2021/11/06 20:52:16;;;;;;;40.83;14.55;;;;;;;5.21;98.02;101495.38;20765397;28;20099;-69
2021/11/06 21:02:17;;;;;;;46.78;12.18;;;;;;;4.87;97.55;101523.09;20811985;28;20049;-71
2021/11/06 21:12:27;;;;;;;59.05;12.73;;;;;;;4.79;97.82;101539.28;20813312;28;20487;-69
2021/11/06 21:22:32;;;;;;;34.95;13.23;;;;;;;4.66;97.83;101551.09;20814149;28;20406;-71
2021/11/06 21:32:34;;;;;;;30.23;14.00;;;;;;;4.71;99.31;101559.88;20813640;28;20103;-69
2021/11/06 21:42:43;;;;;;;39.10;16.08;;;;;;;5.05;98.53;101527.00;20801376;28;20474;-68
2021/11/06 21:52:45;;;;;;;31.17;15.32;;;;;;;5.04;97.68;101528.72;20798213;28;20181;-69
2021/11/06 22:02:48;;;;;;;27.42;13.75;;;;;;;5.09;97.97;101501.16;20809420;28;20050;-69
2021/11/06 22:12:50;;;;;;;40.10;12.35;;;;;;;4.97;96.55;101493.06;20809926;28;20513;-68
2021/11/06 22:22:54;;;;;;;26.13;11.90;;;;;;;4.88;96.57;101454.78;20824528;28;20111;-69
2021/11/06 22:32:56;;;;;;;29.38;12.38;;;;;;;4.85;96.73;101462.50;20823000;28;20053;-69
2021/11/06 22:42:58;;;;;;;31.95;14.43;;;;;;;4.89;96.42;101435.78;20825153;28;20468;-70
2021/11/06 22:53:01;;;;;;;34.65;14.13;;;;;;;4.70;97.40;101467.31;20824273;28;20053;-69
2021/11/06 23:03:10;;;;;;;31.98;14.68;;;;;;;4.68;96.92;101448.22;20823846;28;20049;-69
2021/11/06 23:13:13;;;;;;;29.40;15.23;;;;;;;4.86;96.84;101433.13;20829550;28;20049;-71
2021/11/06 23:23:19;;;;;;;31.98;15.93;;;;;;;4.91;96.07;101401.22;20828720;28;20049;-69
2021/11/06 23:33:22;;;;;;;29.35;15.18;;;;;;;4.63;93.97;101400.53;20827038;28;20053;-69
2021/11/06 23:43:24;;;;;;;32.65;15.07;;;;;;;4.49;95.04;101409.69;20827221;28;20442;-70
2021/11/06 23:53:39;;;;;;;30.20;15.43;;;;;;;4.49;94.50;101391.53;20826959;28;20053;-69
